Time,TemperatureF,DewpointF,PressureIn,WindDirection,WindDirectionDegrees,WindSpeedMPH,WindSpeedGustMPH,Humidity,HourlyPrecipIn,Conditions,Clouds,dailyrainin,SoftwareType,DateUTC
2013-10-08 00:00:00,67.0,26.9,29.78,South,182,7.0,7.0,22,0.00,,,0.00,Wunderground v.1.15,2013-10-08 07:00:00,
2013-10-08 00:10:00,67.0,27.9,29.78,South,183,7.0,19.0,23,0.00,,,0.00,Wunderground v.1.15,2013-10-08 07:10:00,
2013-10-08 00:20:00,66.4,27.4,29.78,South,171,6.0,6.0,23,0.00,,,0.00,Wunderground v.1.15,2013-10-08 07:20:00,
2013-10-08 00:30:00,66.9,27.9,29.78,South,175,5.0,5.0,23,0.00,,,0.00,Wunderground v.1.15,2013-10-08 07:30:00,
2013-10-08 00:40:00,66.1,28.2,29.77,South,179,3.0,3.0,24,0.00,,,0.00,Wunderground v.1.15,2013-10-08 07:40:00,
2013-10-08 00:50:00,65.1,26.3,29.78,South,190,2.0,19.0,23,0.00,,,0.00,Wunderground v.1.15,2013-10-08 07:50:00,
2013-10-08 01:00:00,66.0,27.1,29.78,WSW,245,4.0,19.0,23,0.00,,,0.00,Wunderground v.1.15,2013-10-08 08:00:00,
2013-10-08 01:10:00,67.1,28.0,29.77,SSW,205,7.0,19.0,23,0.00,,,0.00,Wunderground v.1.15,2013-10-08 08:10:00,
2013-10-08 01:20:00,66.7,27.7,29.77,South,184,12.0,19.0,23,0.00,,,0.00,Wunderground v.1.15,2013-10-08 08:20:00,
2013-10-08 01:30:00,66.7,27.7,29.77,South,182,11.0,11.0,23,0.00,,,0.00,Wunderground v.1.15,2013-10-08 08:30:00,
2013-10-08 01:40:00,66.8,27.8,29.77,South,183,11.0,19.0,23,0.00,,,0.00,Wunderground v.1.15,2013-10-08 08:40:00,
2013-10-08 01:50:00,67.1,28.0,29.77,SSW,204,9.0,19.0,23,0.00,,,0.00,Wunderground v.1.15,2013-10-08 08:50:00,
2013-10-08 02:00:00,66.8,27.8,29.77,SW,224,7.0,19.0,23,0.00,,,0.00,Wunderground v.1.15,2013-10-08 09:00:00,
2013-10-08 02:10:00,64.4,26.8,29.77,NW,308,5.0,5.0,24,0.00,,,0.00,Wunderground v.1.15,2013-10-08 09:10:00,
2013-10-08 02:20:00,62.6,26.2,29.77,NW,307,0.0,19.0,25,0.00,,,0.00,Wunderground v.1.15,2013-10-08 09:20:00,
2013-10-08 02:30:00,64.2,25.6,29.77,SW,214,2.0,19.0,23,0.00,,,0.00,Wunderground v.1.15,2013-10-08 09:30:00,
2013-10-08 02:40:00,66.5,26.4,29.77,South,188,8.0,19.0,22,0.00,,,0.00,Wunderground v.1.15,2013-10-08 09:40:00,
2013-10-08 02:50:00,66.7,26.6,29.77,SW,216,9.0,9.0,22,0.00,,,0.00,Wunderground v.1.15,2013-10-08 09:50:00,
2013-10-08 03:00:00,67.3,27.1,29.77,SSW,202,7.0,7.0,22,0.00,,,0.00,Wunderground v.1.15,2013-10-08 10:00:00,
2013-10-08 03:10:00,65.9,27.0,29.76,South,179,8.0,8.0,23,0.00,,,0.00,Wunderground v.1.15,2013-10-08 10:10:00,
2013-10-08 03:20:00,64.9,27.2,29.76,South,186,9.0,19.0,24,0.00,,,0.00,Wunderground v.1.15,2013-10-08 10:20:00,
2013-10-08 03:30:00,65.3,26.5,29.76,SSW,198,10.0,19.0,23,0.00,,,0.00,Wunderground v.1.15,2013-10-08 10:30:00,
2013-10-08 03:40:00,66.2,27.3,29.76,SSW,208,11.0,11.0,23,0.00,,,0.00,Wunderground v.1.15,2013-10-08 10:40:00,
2013-10-08 03:50:00,65.2,26.4,29.76,SW,223,7.0,7.0,23,0.00,,,0.00,Wunderground v.1.15,2013-10-08 10:50:00,
2013-10-08 04:00:00,65.9,27.0,29.75,South,191,6.0,19.0,23,0.00,,,0.00,Wunderground v.1.15,2013-10-08 11:00:00,
2013-10-08 04:10:00,66.3,27.4,29.75,SW,225,7.0,19.0,23,0.00,,,0.00,Wunderground v.1.15,2013-10-08 11:10:00,
2013-10-08 04:20:00,65.6,27.8,29.75,SSW,203,7.0,19.0,24,0.00,,,0.00,Wunderground v.1.15,2013-10-08 11:20:00,
2013-10-08 04:30:00,64.9,28.2,29.75,SSW,200,9.0,19.0,25,0.00,,,0.00,Wunderground v.1.15,2013-10-08 11:30:00,
2013-10-08 04:40:00,63.8,27.3,29.75,South,184,7.0,7.0,25,0.00,,,0.00,Wunderground v.1.15,2013-10-08 11:40:00,
2013-10-08 04:50:00,63.2,26.8,29.75,South,182,5.0,19.0,25,0.00,,,0.00,Wunderground v.1.15,2013-10-08 11:50:00,
2013-10-08 05:00:00,62.7,27.3,29.75,South,182,6.0,6.0,26,0.00,,,0.00,Wunderground v.1.15,2013-10-08 12:00:00,
2013-10-08 05:10:00,61.0,25.8,29.74,South,182,3.0,3.0,26,0.00,,,0.00,Wunderground v.1.15,2013-10-08 12:10:00,
2013-10-08 05:20:00,60.9,26.7,29.74,South,182,3.0,19.0,27,0.00,,,0.00,Wunderground v.1.15,2013-10-08 12:20:00,
2013-10-08 05:30:00,60.3,26.1,29.74,South,182,3.0,19.0,27,0.00,,,0.00,Wunderground v.1.15,2013-10-08 12:30:00,
2013-10-08 05:40:00,60.0,26.8,29.75,South,182,3.0,19.0,28,0.00,,,0.00,Wunderground v.1.15,2013-10-08 12:40:00,
2013-10-08 05:50:00,60.9,26.7,29.75,South,182,2.0,19.0,27,0.00,,,0.00,Wunderground v.1.15,2013-10-08 12:50:00,
2013-10-08 06:00:00,61.0,26.7,29.75,South,184,4.0,4.0,27,0.00,,,0.00,Wunderground v.1.15,2013-10-08 13:00:00,
2013-10-08 06:10:00,59.7,26.5,29.75,South,185,2.0,2.0,28,0.00,,,0.00,Wunderground v.1.15,2013-10-08 13:10:00,
2013-10-08 06:20:00,60.3,27.0,29.74,South,184,0.0,19.0,28,0.00,,,0.00,Wunderground v.1.15,2013-10-08 13:20:00,
2013-10-08 06:30:00,59.5,27.2,29.74,South,184,0.0,19.0,29,0.00,,,0.00,Wunderground v.1.15,2013-10-08 13:30:00,
2013-10-08 06:40:00,60.4,28.0,29.74,SW,231,5.0,19.0,29,0.00,,,0.00,Wunderground v.1.15,2013-10-08 13:40:00,
2013-10-08 06:50:00,61.4,28.0,29.74,SW,232,9.0,19.0,28,0.00,,,0.00,Wunderground v.1.15,2013-10-08 13:50:00,
2013-10-08 07:00:00,60.6,28.1,29.74,SW,232,5.0,5.0,29,0.00,,,0.00,Wunderground v.1.15,2013-10-08 14:00:00,
2013-10-08 07:10:00,61.4,28.8,29.74,SW,236,6.0,19.0,29,0.00,,,0.00,Wunderground v.1.15,2013-10-08 14:10:00,
2013-10-08 07:20:00,63.0,30.2,29.74,SW,234,7.0,19.0,29,0.00,,,0.00,Wunderground v.1.15,2013-10-08 14:20:00,
2013-10-08 07:30:00,61.9,29.3,29.74,West,266,4.0,19.0,29,0.00,,,0.00,Wunderground v.1.15,2013-10-08 14:30:00,
2013-10-08 07:40:00,63.9,30.1,29.74,SW,234,8.0,19.0,28,0.00,,,0.00,Wunderground v.1.15,2013-10-08 14:40:00,
2013-10-08 07:50:00,64.7,29.9,29.74,West,271,8.0,19.0,27,0.00,,,0.00,Wunderground v.1.15,2013-10-08 14:50:00,
2013-10-08 08:00:00,63.2,29.5,29.74,NW,317,2.0,2.0,28,0.00,,,0.00,Wunderground v.1.15,2013-10-08 15:00:00,
2013-10-08 08:10:00,63.1,29.4,29.74,NW,319,1.0,1.0,28,0.00,,,0.00,Wunderground v.1.15,2013-10-08 15:10:00,
2013-10-08 08:20:00,64.2,29.5,29.74,NW,320,0.0,19.0,27,0.00,,,0.00,Wunderground v.1.15,2013-10-08 15:20:00,
2013-10-08 08:30:00,65.0,30.2,29.74,NW,320,0.0,19.0,27,0.00,,,0.00,Wunderground v.1.15,2013-10-08 15:30:00,
2013-10-08 08:40:00,64.9,30.1,29.74,NW,322,3.0,19.0,27,0.00,,,0.00,Wunderground v.1.15,2013-10-08 15:40:00,
2013-10-08 08:50:00,65.6,30.7,29.74,NNE,29,3.0,19.0,27,0.00,,,0.00,Wunderground v.1.15,2013-10-08 15:50:00,
2013-10-08 09:00:00,66.5,30.5,29.74,NNE,29,2.0,2.0,26,0.00,,,0.00,Wunderground v.1.15,2013-10-08 16:00:00,
2013-10-08 09:10:00,68.0,30.8,29.74,NNE,30,1.0,19.0,25,0.00,,,0.00,Wunderground v.1.15,2013-10-08 16:10:00,
2013-10-08 09:20:00,68.8,30.5,29.74,WNW,286,1.0,19.0,24,0.00,,,0.00,Wunderground v.1.15,2013-10-08 16:20:00,
2013-10-08 09:30:00,69.2,30.8,29.74,WSW,248,4.0,4.0,24,0.00,,,0.00,Wunderground v.1.15,2013-10-08 16:30:00,
2013-10-08 09:40:00,69.6,31.2,29.73,West,259,3.0,19.0,24,0.00,,,0.00,Wunderground v.1.15,2013-10-08 16:40:00,
2013-10-08 09:50:00,70.4,30.8,29.73,West,277,3.0,19.0,23,0.00,,,0.00,Wunderground v.1.15,2013-10-08 16:50:00,
2013-10-08 10:00:00,71.5,31.7,29.73,West,277,1.0,1.0,23,0.00,,,0.00,Wunderground v.1.15,2013-10-08 17:00:00,
2013-10-08 10:10:00,72.6,31.5,29.73,NW,311,1.0,1.0,22,0.00,,,0.00,Wunderground v.1.15,2013-10-08 17:10:00,
2013-10-08 10:20:00,72.9,31.8,29.72,WSW,257,3.0,3.0,22,0.00,,,0.00,Wunderground v.1.15,2013-10-08 17:20:00,
2013-10-08 10:30:00,73.1,32.0,29.72,NW,321,4.0,19.0,22,0.00,,,0.00,Wunderground v.1.15,2013-10-08 17:30:00,
2013-10-08 10:40:00,73.5,31.1,29.72,NNW,333,3.0,3.0,21,0.00,,,0.00,Wunderground v.1.15,2013-10-08 17:40:00,
2013-10-08 10:50:00,74.7,32.1,29.72,SW,215,1.0,1.0,21,0.00,,,0.00,Wunderground v.1.15,2013-10-08 17:50:00,
2013-10-08 11:00:00,76.4,32.3,29.70,SW,215,0.0,19.0,20,0.00,,,0.00,Wunderground v.1.15,2013-10-08 18:00:00,
2013-10-08 11:10:00,77.1,31.6,29.70,WNW,302,0.0,19.0,19,0.00,,,0.00,Wunderground v.1.15,2013-10-08 18:10:00,
2013-10-08 11:20:00,76.7,30.0,29.70,West,262,3.0,3.0,18,0.00,,,0.00,Wunderground v.1.15,2013-10-08 18:20:00,
2013-10-08 11:30:00,77.4,30.5,29.70,WSW,253,2.0,19.0,18,0.00,,,0.00,Wunderground v.1.15,2013-10-08 18:30:00,
2013-10-08 11:40:00,77.4,29.1,29.69,SSW,203,4.0,19.0,17,0.00,,,0.00,Wunderground v.1.15,2013-10-08 18:40:00,
2013-10-08 11:50:00,77.8,29.5,29.68,SW,227,6.0,19.0,17,0.00,,,0.00,Wunderground v.1.15,2013-10-08 18:50:00,
2013-10-08 12:00:00,78.7,28.7,29.68,SW,228,4.0,19.0,16,0.00,,,0.00,Wunderground v.1.15,2013-10-08 19:00:00,
2013-10-08 12:10:00,78.8,28.8,29.67,West,266,7.0,7.0,16,0.00,,,0.00,Wunderground v.1.15,2013-10-08 19:10:00,
2013-10-08 12:20:00,79.4,29.3,29.67,WSW,245,7.0,19.0,16,0.00,,,0.00,Wunderground v.1.15,2013-10-08 19:20:00,
2013-10-08 12:30:00,78.8,28.8,29.66,WSW,256,9.0,9.0,16,0.00,,,0.00,Wunderground v.1.15,2013-10-08 19:30:00,
2013-10-08 12:40:00,80.6,28.7,29.66,South,188,1.0,19.0,15,0.00,,,0.00,Wunderground v.1.15,2013-10-08 19:40:00,
2013-10-08 12:50:00,80.7,28.7,29.65,West,269,5.0,19.0,15,0.00,,,0.00,Wunderground v.1.15,2013-10-08 19:50:00,
2013-10-08 13:00:00,80.0,28.2,29.64,WNW,297,8.0,8.0,15,0.00,,,0.00,Wunderground v.1.15,2013-10-08 20:00:00,
2013-10-08 13:10:00,80.6,28.7,29.64,WNW,292,4.0,4.0,15,0.00,,,0.00,Wunderground v.1.15,2013-10-08 20:10:00,
2013-10-08 13:20:00,81.2,29.1,29.63,West,261,2.0,19.0,15,0.00,,,0.00,Wunderground v.1.15,2013-10-08 20:20:00,
2013-10-08 13:30:00,80.6,28.7,29.63,WNW,303,6.0,6.0,15,0.00,,,0.00,Wunderground v.1.15,2013-10-08 20:30:00,
2013-10-08 13:40:00,81.9,28.0,29.62,NW,315,1.0,19.0,14,0.00,,,0.00,Wunderground v.1.15,2013-10-08 20:40:00,
2013-10-08 13:50:00,82.0,28.1,29.61,North,349,1.0,1.0,14,0.00,,,0.00,Wunderground v.1.15,2013-10-08 20:50:00,
2013-10-08 14:00:00,82.2,28.2,29.61,West,267,4.0,19.0,14,0.00,,,0.00,Wunderground v.1.15,2013-10-08 21:00:00,
2013-10-08 14:10:00,82.0,28.1,29.60,WNW,290,8.0,8.0,14,0.00,,,0.00,Wunderground v.1.15,2013-10-08 21:10:00,
2013-10-08 14:20:00,82.1,28.2,29.60,NW,310,4.0,19.0,14,0.00,,,0.00,Wunderground v.1.15,2013-10-08 21:20:00,
2013-10-08 14:30:00,81.9,29.7,29.59,NNW,348,3.0,3.0,15,0.00,,,0.00,Wunderground v.1.15,2013-10-08 21:30:00,
2013-10-08 14:40:00,82.9,28.8,29.59,SSE,156,2.0,19.0,14,0.00,,,0.00,Wunderground v.1.15,2013-10-08 21:40:00,
2013-10-08 14:50:00,82.3,30.0,29.59,SW,225,9.0,9.0,15,0.00,,,0.00,Wunderground v.1.15,2013-10-08 21:50:00,
2013-10-08 15:00:00,82.2,29.9,29.59,WSW,252,11.0,19.0,15,0.00,,,0.00,Wunderground v.1.15,2013-10-08 22:00:00,
2013-10-08 15:10:00,82.2,31.5,29.58,West,261,13.0,13.0,16,0.00,,,0.00,Wunderground v.1.15,2013-10-08 22:10:00,
2013-10-08 15:20:00,82.1,31.4,29.58,WSW,251,15.0,20.0,16,0.00,,,0.00,Wunderground v.1.15,2013-10-08 22:20:00,
2013-10-08 15:30:00,82.0,31.4,29.58,WSW,245,15.0,19.0,16,0.00,,,0.00,Wunderground v.1.15,2013-10-08 22:30:00,
2013-10-08 15:40:00,81.5,31.0,29.57,WSW,256,15.0,15.0,16,0.00,,,0.00,Wunderground v.1.15,2013-10-08 22:40:00,
2013-10-08 15:50:00,81.7,31.1,29.57,WSW,247,18.0,23.0,16,0.00,,,0.00,Wunderground v.1.15,2013-10-08 22:50:00,
2013-10-08 16:00:00,81.1,29.1,29.57,West,267,17.0,19.0,15,0.00,,,0.00,Wunderground v.1.15,2013-10-08 23:00:00,
2013-10-08 16:10:00,81.1,30.6,29.56,WSW,248,19.0,19.0,16,0.00,,,0.00,Wunderground v.1.15,2013-10-08 23:10:00,
2013-10-08 16:20:00,80.9,28.9,29.56,WSW,249,18.0,18.0,15,0.00,,,0.00,Wunderground v.1.15,2013-10-08 23:20:00,
2013-10-08 16:30:00,80.7,28.7,29.55,WSW,253,19.0,19.0,15,0.00,,,0.00,Wunderground v.1.15,2013-10-08 23:30:00,
2013-10-08 16:40:00,80.3,28.4,29.55,WSW,248,20.0,20.0,15,0.00,,,0.00,Wunderground v.1.15,2013-10-08 23:40:00,
2013-10-08 16:50:00,80.1,29.8,29.55,WSW,257,20.0,21.0,16,0.00,,,0.00,Wunderground v.1.15,2013-10-08 23:50:00,
2013-10-08 17:00:00,79.7,29.5,29.55,WSW,244,19.0,22.0,16,0.00,,,0.00,Wunderground v.1.15,2013-10-09 00:00:00,
2013-10-08 17:10:00,79.2,29.1,29.54,WSW,244,20.0,20.0,16,0.00,,,0.00,Wunderground v.1.15,2013-10-09 00:10:00,
2013-10-08 17:20:00,78.8,28.8,29.54,WSW,254,20.0,20.0,16,0.00,,,0.00,Wunderground v.1.15,2013-10-09 00:20:00,
2013-10-08 17:30:00,78.6,30.1,29.54,WSW,250,19.0,19.0,17,0.00,,,0.00,Wunderground v.1.15,2013-10-09 00:30:00,
2013-10-08 17:40:00,77.7,29.4,29.54,WSW,253,20.0,20.0,17,0.00,,,0.00,Wunderground v.1.15,2013-10-09 00:40:00,
2013-10-08 17:50:00,77.3,29.1,29.55,WSW,244,18.0,18.0,17,0.00,,,0.00,Wunderground v.1.15,2013-10-09 00:50:00,
2013-10-08 18:00:00,76.5,29.8,29.55,WSW,247,19.0,19.0,18,0.00,,,0.00,Wunderground v.1.15,2013-10-09 01:00:00,
2013-10-08 18:10:00,76.1,29.5,29.55,SW,230,18.0,18.0,18,0.00,,,0.00,Wunderground v.1.15,2013-10-09 01:10:00,
2013-10-08 18:20:00,74.6,30.9,29.55,SSW,202,14.0,19.0,20,0.00,,,0.00,Wunderground v.1.15,2013-10-09 01:20:00,
2013-10-08 18:30:00,71.9,44.2,29.56,South,172,20.0,24.0,37,0.00,,,0.00,Wunderground v.1.15,2013-10-09 01:30:00,
2013-10-08 18:40:00,70.4,44.3,29.56,South,169,19.0,19.0,39,0.00,,,0.00,Wunderground v.1.15,2013-10-09 01:40:00,
2013-10-08 18:50:00,69.8,44.4,29.56,South,180,17.0,22.0,40,0.00,,,0.00,Wunderground v.1.15,2013-10-09 01:50:00,
2013-10-08 19:00:00,69.3,44.6,29.57,South,180,19.0,19.0,41,0.00,,,0.00,Wunderground v.1.15,2013-10-09 02:00:00,
2013-10-08 19:10:00,68.8,44.1,29.57,South,175,19.0,19.0,41,0.00,,,0.00,Wunderground v.1.15,2013-10-09 02:10:00,
2013-10-08 19:20:00,68.0,44.7,29.57,South,186,18.0,20.0,43,0.00,,,0.00,Wunderground v.1.15,2013-10-09 02:20:00,
2013-10-08 19:30:00,67.6,44.3,29.57,South,174,16.0,16.0,43,0.00,,,0.00,Wunderground v.1.15,2013-10-09 02:30:00,
2013-10-08 19:40:00,66.9,44.3,29.57,South,173,14.0,19.0,44,0.00,,,0.00,Wunderground v.1.15,2013-10-09 02:40:00,
2013-10-08 19:50:00,66.5,44.5,29.57,SSE,165,16.0,16.0,45,0.00,,,0.00,Wunderground v.1.15,2013-10-09 02:50:00,
2013-10-08 20:00:00,65.9,45.1,29.57,South,171,14.0,19.0,47,0.00,,,0.00,Wunderground v.1.15,2013-10-09 03:00:00,
2013-10-08 20:10:00,65.8,43.9,29.57,SSE,167,16.0,16.0,45,0.00,,,0.00,Wunderground v.1.15,2013-10-09 03:10:00,
2013-10-08 20:20:00,65.0,44.8,29.57,SSE,161,15.0,19.0,48,0.00,,,0.00,Wunderground v.1.15,2013-10-09 03:20:00,
2013-10-08 20:30:00,65.0,44.3,29.57,SSE,157,15.0,19.0,47,0.00,,,0.00,Wunderground v.1.15,2013-10-09 03:30:00,
2013-10-08 20:40:00,64.8,43.5,29.57,South,178,15.0,23.0,46,0.00,,,0.00,Wunderground v.1.15,2013-10-09 03:40:00,
2013-10-08 20:50:00,65.3,42.2,29.58,SSW,192,18.0,23.0,43,0.00,,,0.00,Wunderground v.1.15,2013-10-09 03:50:00,
2013-10-08 21:00:00,65.2,42.1,29.58,South,171,18.0,18.0,43,0.00,,,0.00,Wunderground v.1.15,2013-10-09 04:00:00,
2013-10-08 21:10:00,64.1,42.9,29.58,SSE,159,16.0,16.0,46,0.00,,,0.00,Wunderground v.1.15,2013-10-09 04:10:00,
2013-10-08 21:20:00,64.2,41.8,29.58,SSE,168,14.0,14.0,44,0.00,,,0.00,Wunderground v.1.15,2013-10-09 04:20:00,
2013-10-08 21:30:00,63.8,43.2,29.58,South,169,14.0,19.0,47,0.00,,,0.00,Wunderground v.1.15,2013-10-09 04:30:00,
2013-10-08 21:40:00,63.6,43.0,29.57,SSE,167,13.0,19.0,47,0.00,,,0.00,Wunderground v.1.15,2013-10-09 04:40:00,
2013-10-08 21:50:00,62.9,43.4,29.57,SSE,168,15.0,19.0,49,0.00,,,0.00,Wunderground v.1.15,2013-10-09 04:50:00,
2013-10-08 22:00:00,62.1,43.7,29.57,SSE,163,16.0,16.0,51,0.00,,,0.00,Wunderground v.1.15,2013-10-09 05:00:00,
2013-10-08 22:10:00,62.2,43.3,29.57,SSE,164,16.0,19.0,50,0.00,,,0.00,Wunderground v.1.15,2013-10-09 05:10:00,
2013-10-08 22:20:00,61.9,43.6,29.57,SSE,160,15.0,15.0,51,0.00,,,0.00,Wunderground v.1.15,2013-10-09 05:20:00,
2013-10-08 22:30:00,62.3,42.9,29.57,SE,146,16.0,16.0,49,0.00,,,0.00,Wunderground v.1.15,2013-10-09 05:30:00,
2013-10-08 22:40:00,62.2,42.8,29.57,SSE,168,15.0,19.0,49,0.00,,,0.00,Wunderground v.1.15,2013-10-09 05:40:00,
2013-10-08 22:50:00,61.7,43.4,29.57,West,265,14.0,14.0,51,0.00,,,0.00,Wunderground v.1.15,2013-10-09 05:50:00,
2013-10-08 23:00:00,61.1,43.8,29.58,West,275,10.0,19.0,53,0.00,,,0.00,Wunderground v.1.15,2013-10-09 06:00:00,
2013-10-08 23:10:00,61.1,43.3,29.57,NW,321,11.0,11.0,52,0.00,,,0.00,Wunderground v.1.15,2013-10-09 06:10:00,
2013-10-08 23:20:00,61.1,43.3,29.58,WNW,284,5.0,19.0,52,0.00,,,0.00,Wunderground v.1.15,2013-10-09 06:20:00,
2013-10-08 23:30:00,60.8,43.1,29.57,WNW,298,6.0,19.0,52,0.00,,,0.00,Wunderground v.1.15,2013-10-09 06:30:00,
2013-10-08 23:40:00,60.7,42.5,29.57,SSW,208,5.0,5.0,51,0.00,,,0.00,Wunderground v.1.15,2013-10-09 06:40:00,
2013-10-08 23:50:00,60.4,42.2,29.57,SSW,194,3.0,19.0,51,0.00,,,0.00,Wunderground v.1.15,2013-10-09 06:50:00,